createdAt,value
2018-12-08T00:01:00.065Z,7.40
2018-12-08T00:03:29.212Z,5.82
2018-12-08T00:06:17.037Z,5.97
2018-12-08T00:08:46.113Z,5.60
2018-12-08T00:11:15.165Z,8.05
2018-12-08T00:13:44.211Z,7.85
2018-12-08T00:16:13.403Z,9.75
2018-12-08T00:18:42.365Z,9.65
2018-12-08T00:21:11.424Z,7.75
2018-12-08T00:23:40.490Z,9.82
2018-12-08T00:26:11.118Z,6.90
2018-12-08T00:28:38.598Z,6.80
2018-12-08T00:31:19.613Z,4.72
2018-12-08T00:33:48.648Z,5.80
2018-12-08T00:36:17.703Z,4.47
2018-12-08T00:38:46.857Z,6.75
2018-12-08T00:41:15.818Z,4.90
2018-12-08T00:43:44.875Z,6.43
2018-12-08T00:46:13.936Z,5.40
2018-12-08T00:48:42.979Z,4.45
2018-12-08T00:51:12.044Z,4.40
2018-12-08T00:53:41.123Z,5.00
2018-12-08T00:56:10.171Z,9.75
2018-12-08T00:58:39.204Z,6.68
2018-12-08T01:01:08.269Z,5.20
2018-12-08T01:03:37.315Z,5.10
2018-12-08T01:06:06.361Z,5.68
2018-12-08T01:08:35.441Z,6.53
2018-12-08T01:11:04.470Z,4.37
2018-12-08T01:13:33.501Z,5.90
2018-12-08T01:16:02.591Z,6.60
2018-12-08T01:18:31.640Z,6.40
2018-12-08T01:21:00.689Z,3.97
2018-12-08T01:23:29.770Z,6.03
2018-12-08T01:25:58.801Z,4.57
2018-12-08T01:28:27.842Z,3.90
2018-12-08T01:30:56.915Z,3.40
2018-12-08T01:33:25.959Z,2.65
2018-12-08T01:35:55.002Z,2.90
2018-12-08T01:38:24.184Z,3.22
2018-12-08T01:40:53.237Z,3.47
2018-12-08T01:43:22.283Z,4.20
2018-12-08T01:45:51.364Z,3.80
2018-12-08T01:48:20.413Z,4.70
2018-12-08T01:50:49.466Z,3.97
2018-12-08T01:53:18.537Z,3.55
2018-12-08T01:55:47.573Z,3.53
2018-12-08T01:58:16.633Z,3.45
2018-12-08T02:00:45.734Z,3.33
2018-12-08T02:03:14.788Z,3.50
2018-12-08T02:05:43.832Z,2.50
2018-12-08T02:08:12.904Z,2.72
2018-12-08T02:10:41.960Z,2.53
2018-12-08T02:13:10.997Z,4.15
2018-12-08T02:15:40.143Z,3.75
2018-12-08T02:18:09.199Z,2.20
2018-12-08T02:20:38.252Z,3.97
2018-12-08T02:23:07.363Z,2.87
2018-12-08T02:25:36.410Z,2.40
2018-12-08T02:28:05.466Z,2.40
2018-12-08T02:30:34.549Z,3.42
2018-12-08T02:33:03.600Z,2.55
2018-12-08T02:35:32.640Z,3.35
2018-12-08T02:38:01.708Z,2.50
2018-12-08T02:40:30.768Z,2.70
2018-12-08T02:42:59.824Z,2.40
2018-12-08T02:45:28.918Z,2.20
2018-12-08T02:47:57.962Z,2.62
2018-12-08T02:50:27.010Z,2.35
2018-12-08T02:52:56.076Z,2.20
2018-12-08T02:55:33.556Z,2.70
2018-12-08T02:58:02.622Z,2.25
2018-12-08T03:00:31.704Z,2.60
2018-12-08T03:03:00.757Z,2.12
2018-12-08T03:05:29.844Z,2.42
2018-12-08T03:07:58.894Z,2.00
2018-12-08T03:10:27.935Z,2.33
2018-12-08T03:12:56.998Z,2.30
2018-12-08T03:15:26.056Z,2.10
2018-12-08T03:17:55.102Z,2.65
2018-12-08T03:20:24.176Z,2.12
2018-12-08T03:22:53.230Z,2.17
2018-12-08T03:25:22.283Z,2.15
2018-12-08T03:27:51.481Z,3.35
2018-12-08T03:30:20.523Z,1.92
2018-12-08T03:32:49.569Z,2.20
2018-12-08T03:35:19.662Z,2.90
2018-12-08T03:37:48.712Z,3.40
2018-12-08T03:40:17.877Z,2.60
2018-12-08T03:42:46.830Z,2.65
2018-12-08T03:45:23.074Z,2.33
2018-12-08T03:47:52.183Z,2.17
2018-12-08T03:50:21.227Z,1.70
2018-12-08T03:52:50.277Z,2.17
2018-12-08T03:55:19.348Z,1.70
2018-12-08T03:57:48.393Z,1.70
2018-12-08T04:00:17.449Z,1.60
2018-12-08T04:02:46.526Z,2.75
2018-12-08T04:08:19.948Z,1.70
2018-12-08T04:10:49.060Z,1.80
2018-12-08T04:13:18.038Z,1.70
2018-12-08T04:15:47.111Z,1.90
2018-12-08T04:18:16.171Z,1.80
2018-12-08T04:20:45.227Z,2.45
2018-12-08T04:23:14.295Z,2.10
2018-12-08T04:25:43.349Z,2.53
2018-12-08T04:28:12.390Z,3.75
2018-12-08T04:30:41.490Z,3.35
2018-12-08T04:33:10.541Z,6.12
2018-12-08T04:35:39.597Z,2.58
2018-12-08T04:38:08.681Z,2.15
2018-12-08T04:40:37.711Z,2.55
2018-12-08T04:43:07.690Z,2.62
2018-12-08T04:45:36.921Z,1.70
2018-12-08T04:48:05.959Z,2.50
2018-12-08T04:50:35.012Z,2.33
2018-12-08T04:53:04.216Z,2.53
2018-12-08T04:55:33.279Z,4.47
2018-12-08T04:58:02.312Z,3.72
2018-12-08T05:00:31.376Z,3.90
2018-12-08T05:03:00.500Z,3.00
2018-12-08T05:05:29.536Z,2.43
2018-12-08T05:07:58.596Z,1.90
2018-12-08T05:10:27.640Z,3.50
2018-12-08T05:12:56.671Z,4.50
2018-12-08T05:15:27.758Z,4.30
2018-12-08T05:17:56.809Z,3.87
2018-12-08T05:20:25.849Z,2.27
2018-12-08T05:22:54.923Z,3.67
2018-12-08T05:25:23.962Z,3.77
2018-12-08T05:27:53.001Z,3.40
2018-12-08T05:30:22.307Z,4.83
2018-12-08T05:32:51.333Z,6.13
2018-12-08T05:35:33.931Z,5.77
2018-12-08T05:38:02.956Z,5.90
2018-12-08T05:40:31.985Z,4.37
2018-12-08T05:43:01.293Z,9.00
2018-12-08T05:45:30.337Z,10.90
2018-12-08T05:47:59.390Z,6.87
2018-12-08T05:50:28.446Z,9.67
2018-12-08T05:52:57.502Z,9.13
2018-12-08T05:55:31.932Z,8.30
2018-12-08T05:58:00.965Z,10.70
2018-12-08T06:00:30.009Z,8.70
2018-12-08T06:02:59.078Z,5.27
2018-12-08T06:05:28.114Z,9.37
2018-12-08T06:07:58.681Z,9.50
2018-12-08T06:10:26.224Z,6.80
2018-12-08T06:12:55.368Z,8.70
2018-12-08T06:15:24.342Z,7.93
2018-12-08T06:17:53.431Z,6.27
2018-12-08T06:20:22.473Z,9.83
2018-12-08T06:22:51.493Z,8.77
2018-12-08T06:25:20.570Z,11.80
2018-12-08T06:27:49.613Z,9.90
2018-12-08T06:32:51.362Z,8.67
2018-12-08T06:35:20.397Z,11.73
2018-12-08T06:37:49.435Z,13.40
2018-12-08T06:40:18.527Z,12.00
2018-12-08T06:42:47.571Z,12.27
2018-12-08T06:45:16.615Z,12.27
2018-12-08T06:47:45.702Z,14.80
2018-12-08T06:50:14.749Z,10.37
2018-12-08T06:52:43.799Z,14.50
2018-12-08T06:55:13.075Z,14.33
2018-12-08T06:57:42.134Z,12.80
2018-12-08T07:00:11.174Z,12.13
2018-12-08T07:02:40.269Z,10.73
2018-12-08T07:05:09.333Z,12.90
2018-12-08T07:07:38.391Z,12.10
2018-12-08T07:10:07.475Z,17.63
2018-12-08T07:12:36.541Z,16.00
2018-12-08T07:15:05.641Z,18.70
2018-12-08T07:17:34.708Z,54.00
2018-12-08T07:20:03.778Z,24.93
2018-12-08T07:22:32.857Z,24.13
2018-12-08T07:25:10.609Z,10.47
2018-12-08T07:27:39.643Z,11.67
2018-12-08T07:30:08.679Z,9.30
2018-12-08T07:32:38.958Z,12.17
2018-12-08T07:35:06.812Z,12.73
2018-12-08T07:37:35.853Z,16.73
2018-12-08T07:40:04.922Z,13.73
2018-12-08T07:42:33.995Z,13.17
2018-12-08T07:45:08.236Z,13.33
2018-12-08T07:47:37.279Z,14.03
2018-12-08T07:50:06.313Z,17.23
2018-12-08T07:52:35.399Z,13.03
2018-12-08T07:55:04.456Z,16.77
2018-12-08T07:57:33.497Z,53.80
2018-12-08T08:00:04.524Z,32.23
2018-12-08T08:02:31.645Z,22.10
2018-12-08T08:05:00.693Z,25.23
2018-12-08T08:07:29.789Z,25.87
2018-12-08T08:09:58.847Z,27.33
2018-12-08T08:12:27.890Z,17.30
2018-12-08T08:14:56.966Z,25.63
2018-12-08T08:17:26.016Z,30.67
2018-12-08T08:19:55.049Z,16.33
2018-12-08T08:22:24.122Z,15.60
2018-12-08T08:24:53.181Z,28.80
2018-12-08T08:27:22.271Z,19.77
2018-12-08T08:29:51.365Z,27.63
2018-12-08T08:32:20.426Z,23.20
2018-12-08T08:34:49.480Z,22.60
2018-12-08T08:37:18.569Z,29.97
2018-12-08T08:39:47.601Z,16.60
2018-12-08T08:42:16.640Z,14.80
2018-12-08T08:44:45.718Z,18.67
2018-12-08T08:47:14.764Z,16.73
2018-12-08T08:49:43.794Z,15.90
2018-12-08T08:52:12.878Z,16.73
2018-12-08T08:54:41.923Z,15.13
2018-12-08T08:57:10.961Z,18.17
2018-12-08T08:59:40.339Z,19.60
2018-12-08T09:02:09.384Z,13.73
2018-12-08T09:04:38.415Z,17.70
2018-12-08T09:07:07.481Z,18.13
2018-12-08T09:09:36.515Z,21.07
2018-12-08T09:12:05.549Z,15.90
2018-12-08T09:14:34.632Z,12.90
2018-12-08T09:17:03.731Z,12.97
2018-12-08T09:19:32.722Z,17.10
2018-12-08T09:22:01.787Z,15.93
2018-12-08T09:24:30.835Z,17.30
2018-12-08T09:26:59.877Z,15.07
2018-12-08T09:29:28.947Z,12.80
2018-12-08T09:31:57.989Z,10.00
2018-12-08T09:34:27.033Z,13.27
2018-12-08T09:36:56.479Z,11.80
2018-12-08T09:39:25.521Z,11.80
2018-12-08T09:41:54.567Z,16.50
2018-12-08T09:44:23.638Z,15.87
2018-12-08T09:46:52.691Z,15.73
2018-12-08T09:49:21.742Z,11.43
2018-12-08T09:51:50.815Z,19.17
2018-12-08T09:54:19.871Z,15.17
2018-12-08T09:56:48.902Z,12.83
2018-12-08T09:59:18.009Z,16.73
2018-12-08T10:01:47.054Z,11.90
2018-12-08T10:04:16.108Z,11.30
2018-12-08T10:06:45.190Z,10.87
2018-12-08T10:09:14.229Z,14.97
2018-12-08T10:11:43.278Z,12.27
2018-12-08T10:14:12.353Z,12.27
2018-12-08T10:16:41.400Z,8.67
2018-12-08T10:19:10.435Z,9.60
2018-12-08T10:21:39.517Z,13.50
2018-12-08T10:24:08.553Z,11.20
2018-12-08T10:26:37.584Z,9.60
2018-12-08T10:29:06.879Z,11.83
2018-12-08T10:31:35.917Z,11.80
2018-12-08T10:34:04.974Z,32.03
2018-12-08T10:36:34.042Z,12.67
2018-12-08T10:39:03.088Z,10.33
2018-12-08T10:41:32.118Z,9.30
2018-12-08T10:44:01.200Z,13.47
2018-12-08T10:46:30.231Z,12.97
2018-12-08T10:48:59.267Z,12.33
2018-12-08T10:51:28.339Z,9.40
2018-12-08T10:53:57.380Z,13.63
2018-12-08T10:56:26.421Z,9.27
2018-12-08T10:58:55.499Z,7.87
2018-12-08T11:01:24.535Z,8.83
2018-12-08T11:03:53.567Z,11.17
2018-12-08T11:06:22.743Z,10.07
2018-12-08T11:08:51.785Z,10.73
2018-12-08T11:11:20.825Z,15.47
2018-12-08T11:13:49.904Z,12.27
2018-12-08T11:16:18.952Z,14.77
2018-12-08T11:18:47.985Z,13.47
2018-12-08T11:21:17.057Z,16.87
2018-12-08T11:23:46.094Z,24.90
2018-12-08T11:26:15.139Z,12.30
2018-12-08T11:28:44.239Z,11.17
2018-12-08T11:31:13.275Z,15.60
2018-12-08T11:33:42.315Z,15.87
2018-12-08T11:36:11.406Z,13.90
2018-12-08T11:38:40.451Z,45.10
2018-12-08T11:41:09.501Z,45.57
2018-12-08T11:43:38.575Z,25.17
2018-12-08T11:46:07.636Z,61.47
2018-12-08T11:48:36.693Z,35.43
2018-12-08T11:51:05.783Z,10.83
2018-12-08T11:53:34.820Z,9.33
2018-12-08T11:56:03.870Z,9.90
2018-12-08T11:58:33.033Z,27.47
2018-12-08T12:01:02.067Z,9.57
2018-12-08T12:03:31.111Z,8.07
2018-12-08T12:06:00.169Z,10.47
2018-12-08T12:08:29.205Z,6.53
2018-12-08T12:10:58.235Z,7.67
2018-12-08T12:13:27.308Z,9.73
2018-12-08T12:15:56.344Z,16.07
2018-12-08T12:18:25.378Z,11.33
2018-12-08T12:20:54.480Z,22.40
2018-12-08T12:23:23.518Z,14.87
2018-12-08T12:25:52.572Z,17.50
2018-12-08T12:28:21.672Z,11.33
2018-12-08T12:30:50.693Z,12.17
2018-12-08T12:33:19.735Z,28.83
2018-12-08T12:35:52.191Z,14.60
2018-12-08T12:38:21.228Z,13.97
2018-12-08T12:40:50.265Z,17.07
2018-12-08T12:43:19.329Z,13.93
2018-12-08T12:45:48.361Z,5.87
2018-12-08T12:48:17.400Z,14.80
2018-12-08T12:50:46.472Z,14.60
2018-12-08T12:53:15.540Z,10.90
2018-12-08T12:55:44.576Z,11.27
2018-12-08T12:58:13.708Z,16.53
2018-12-08T13:00:42.759Z,46.03
2018-12-08T13:03:11.810Z,33.90
2018-12-08T13:05:40.885Z,53.73
2018-12-08T13:08:09.931Z,27.33
2018-12-08T13:10:38.979Z,18.20
2018-12-08T13:13:08.051Z,23.10
2018-12-08T13:15:37.092Z,20.47
2018-12-08T13:18:06.136Z,23.20
2018-12-08T13:20:35.258Z,21.80
2018-12-08T13:23:04.298Z,37.83
2018-12-08T13:28:39.103Z,32.73
2018-12-08T13:31:08.179Z,20.73
2018-12-08T13:33:37.233Z,18.33
2018-12-08T13:36:06.291Z,14.43
2018-12-08T13:38:35.376Z,12.27
2018-12-08T13:41:04.419Z,12.37
2018-12-08T13:43:33.458Z,13.30
2018-12-08T13:46:02.522Z,9.90
2018-12-08T13:48:31.552Z,9.57
2018-12-08T13:51:00.588Z,9.67
2018-12-08T13:53:36.516Z,10.53
2018-12-08T13:55:58.708Z,15.50
2018-12-08T13:58:27.746Z,8.53
2018-12-08T14:00:56.954Z,10.40
2018-12-08T14:03:26.000Z,14.20
2018-12-08T14:05:55.040Z,12.67
2018-12-08T14:08:24.113Z,29.13
2018-12-08T14:10:53.160Z,18.03
2018-12-08T14:13:22.243Z,22.10
2018-12-08T14:15:51.324Z,10.73
2018-12-08T14:18:20.358Z,10.13
2018-12-08T14:20:49.404Z,11.27
2018-12-08T14:23:18.502Z,19.20
2018-12-08T14:25:47.545Z,22.77
2018-12-08T14:28:16.586Z,16.27
2018-12-08T14:30:45.663Z,11.07
2018-12-08T14:33:15.391Z,9.80
2018-12-08T14:35:44.658Z,13.57
2018-12-08T14:38:13.739Z,14.60
2018-12-08T14:40:42.781Z,15.67
2018-12-08T14:43:11.823Z,14.30
2018-12-08T14:45:41.093Z,12.23
2018-12-08T14:48:10.121Z,14.23
2018-12-08T14:50:39.169Z,20.77
2018-12-08T14:53:08.264Z,17.43
2018-12-08T14:55:37.318Z,22.73
2018-12-08T14:58:06.365Z,19.30
2018-12-08T15:00:35.436Z,14.87
2018-12-08T15:03:04.499Z,18.63
2018-12-08T15:05:33.538Z,20.00
2018-12-08T15:08:02.636Z,20.47
2018-12-08T15:10:31.689Z,14.70
2018-12-08T15:13:00.746Z,28.47
2018-12-08T15:15:29.823Z,15.90
2018-12-08T15:17:58.873Z,15.50
2018-12-08T15:20:27.919Z,25.83
2018-12-08T15:22:57.000Z,20.30
2018-12-08T15:25:26.039Z,13.10
2018-12-08T15:27:55.077Z,10.47
2018-12-08T15:30:24.180Z,17.93
2018-12-08T15:32:53.223Z,21.13
2018-12-08T15:35:34.725Z,19.27
2018-12-08T15:38:03.775Z,29.60
2018-12-08T15:40:32.817Z,23.87
2018-12-08T15:43:01.917Z,13.37
2018-12-08T15:45:30.969Z,22.15
2018-12-08T15:48:00.024Z,23.30
2018-12-08T15:50:29.115Z,22.87
2018-12-08T15:52:58.157Z,21.60
2018-12-08T15:58:30.292Z,16.80
2018-12-08T16:00:59.365Z,27.07
2018-12-08T16:03:28.403Z,12.27
2018-12-08T16:05:57.442Z,13.30
2018-12-08T16:08:26.553Z,17.13
2018-12-08T16:10:55.606Z,23.27
2018-12-08T16:13:24.732Z,14.73
2018-12-08T16:15:53.729Z,11.03
2018-12-08T16:18:22.770Z,19.97
2018-12-08T16:20:51.810Z,13.37
2018-12-08T16:23:20.892Z,18.30
2018-12-08T16:25:49.926Z,14.63
2018-12-08T16:28:18.978Z,17.00
2018-12-08T16:30:48.056Z,14.67
2018-12-08T16:33:17.157Z,16.23
2018-12-08T16:35:46.177Z,18.23
2018-12-08T16:38:15.244Z,10.57
2018-12-08T16:40:44.290Z,14.00
2018-12-08T16:43:13.324Z,12.30
2018-12-08T16:45:42.401Z,14.63
2018-12-08T16:48:11.432Z,15.27
2018-12-08T16:50:41.002Z,14.43
2018-12-08T16:53:09.536Z,8.37
2018-12-08T16:55:42.639Z,9.70
2018-12-08T16:58:11.783Z,8.53
2018-12-08T17:00:40.833Z,12.80
2018-12-08T17:03:09.858Z,10.63
2018-12-08T17:05:38.925Z,11.77
2018-12-08T17:08:07.965Z,12.27
2018-12-08T17:10:37.014Z,17.97
2018-12-08T17:13:06.122Z,10.80
2018-12-08T17:15:35.156Z,12.60
2018-12-08T17:18:04.197Z,10.50
2018-12-08T17:20:33.261Z,11.80
2018-12-08T17:23:02.309Z,12.83
2018-12-08T17:25:31.349Z,10.80
2018-12-08T17:28:00.409Z,13.00
2018-12-08T17:30:29.449Z,8.43
2018-12-08T17:32:58.497Z,10.50
2018-12-08T17:35:28.546Z,9.10
2018-12-08T17:37:57.578Z,10.10
2018-12-08T17:40:26.620Z,11.33
2018-12-08T17:42:55.675Z,11.07
2018-12-08T17:45:24.708Z,7.57
2018-12-08T17:47:53.758Z,15.17
2018-12-08T17:50:22.835Z,20.67
2018-12-08T17:52:51.867Z,11.77
2018-12-08T17:55:20.915Z,10.73
2018-12-08T17:57:50.016Z,10.83
2018-12-08T18:00:19.063Z,8.77
2018-12-08T18:02:48.105Z,8.37
2018-12-08T18:05:17.172Z,6.27
2018-12-08T18:07:46.217Z,12.90
2018-12-08T18:10:15.248Z,9.47
2018-12-08T18:12:44.316Z,7.00
2018-12-08T18:15:13.338Z,8.40
2018-12-08T18:17:42.371Z,7.47
2018-12-08T18:20:11.485Z,9.77
2018-12-08T18:22:40.576Z,15.30
2018-12-08T18:25:25.595Z,9.53
2018-12-08T18:27:54.625Z,7.90
2018-12-08T18:30:23.681Z,10.73
2018-12-08T18:32:52.768Z,12.87
2018-12-08T18:35:21.822Z,14.53
2018-12-08T18:37:50.859Z,10.73
2018-12-08T18:40:20.057Z,9.80
2018-12-08T18:42:49.056Z,11.33
2018-12-08T18:45:18.102Z,9.13
2018-12-08T18:47:47.176Z,10.27
2018-12-08T18:50:16.217Z,10.03
2018-12-08T18:52:45.252Z,9.90
2018-12-08T18:55:14.357Z,14.87
2018-12-08T18:57:43.391Z,9.33
2018-12-08T19:00:12.423Z,9.40
2018-12-08T19:02:41.517Z,11.20
2018-12-08T19:05:22.008Z,8.87
2018-12-08T19:07:51.156Z,8.10
2018-12-08T19:10:20.168Z,8.57
2018-12-08T19:12:49.282Z,9.33
2018-12-08T19:15:18.338Z,6.87
2018-12-08T19:17:47.378Z,15.80
2018-12-08T19:20:16.418Z,8.47
2018-12-08T19:22:45.498Z,5.50
2018-12-08T19:28:30.414Z,6.97
2018-12-08T19:30:59.328Z,8.07
2018-12-08T19:33:28.353Z,7.27
2018-12-08T19:36:10.596Z,5.07
2018-12-08T19:38:39.626Z,5.00
2018-12-08T19:41:08.664Z,8.97
2018-12-08T19:43:37.827Z,5.60
2018-12-08T19:46:06.858Z,11.07
2018-12-08T19:48:35.895Z,9.70
2018-12-08T19:51:04.953Z,5.73
2018-12-08T19:53:34.004Z,5.47
2018-12-08T19:56:03.076Z,7.20
2018-12-08T19:58:32.143Z,7.50
2018-12-08T20:01:01.183Z,9.43
2018-12-08T20:03:30.228Z,7.70
2018-12-08T20:05:59.325Z,8.63
2018-12-08T20:08:28.365Z,6.00
2018-12-08T20:10:57.408Z,7.17
2018-12-08T20:13:26.471Z,6.13
2018-12-08T20:16:14.220Z,8.80
2018-12-08T20:18:43.279Z,8.33
2018-12-08T20:21:12.378Z,10.37
2018-12-08T20:23:41.463Z,27.10
2018-12-08T20:26:10.585Z,10.60
2018-12-08T20:28:39.612Z,10.00
2018-12-08T20:31:08.658Z,12.57
2018-12-08T20:33:37.728Z,12.67
2018-12-08T20:36:06.796Z,36.33
2018-12-08T20:38:35.846Z,10.47
2018-12-08T20:41:04.952Z,15.53
2018-12-08T20:43:34.034Z,16.40
2018-12-08T20:46:03.315Z,14.10
2018-12-08T20:48:32.504Z,16.57
2018-12-08T20:51:01.553Z,19.20
2018-12-08T20:53:30.586Z,19.90
2018-12-08T20:55:59.662Z,15.53
2018-12-08T20:58:28.710Z,10.10
2018-12-08T21:00:57.756Z,13.87
2018-12-08T21:03:26.822Z,11.73
2018-12-08T21:05:55.868Z,24.73
2018-12-08T21:08:24.915Z,16.23
2018-12-08T21:10:53.996Z,28.93
2018-12-08T21:13:23.052Z,18.77
2018-12-08T21:15:59.304Z,13.43
2018-12-08T21:18:28.347Z,9.37
2018-12-08T21:20:57.383Z,15.83
2018-12-08T21:23:27.163Z,7.47
2018-12-08T21:25:55.503Z,14.13
2018-12-08T21:28:24.547Z,11.87
2018-12-08T21:30:53.651Z,14.67
2018-12-08T21:33:22.689Z,10.53
2018-12-08T21:35:51.729Z,9.30
2018-12-08T21:38:20.795Z,7.57
2018-12-08T21:40:49.856Z,7.43
2018-12-08T21:43:18.899Z,5.90
2018-12-08T21:45:47.999Z,6.77
2018-12-08T21:48:17.028Z,7.50
2018-12-08T21:50:46.068Z,6.70
2018-12-08T21:53:15.174Z,7.63
2018-12-08T21:55:44.194Z,8.77
2018-12-08T21:58:13.243Z,6.20
2018-12-08T22:00:42.339Z,7.67
2018-12-08T22:03:11.364Z,5.53
2018-12-08T22:05:40.394Z,7.57
2018-12-08T22:08:09.447Z,7.07
2018-12-08T22:10:38.477Z,7.33
2018-12-08T22:13:07.565Z,7.87
2018-12-08T22:15:36.639Z,6.17
2018-12-08T22:18:05.685Z,7.67
2018-12-08T22:20:34.746Z,8.03
2018-12-08T22:23:03.816Z,8.17
2018-12-08T22:25:36.841Z,6.80
2018-12-08T22:28:05.901Z,6.90
2018-12-08T22:30:34.923Z,11.43
2018-12-08T22:33:03.973Z,9.83
2018-12-08T22:35:33.347Z,7.50
2018-12-08T22:38:02.379Z,7.37
2018-12-08T22:40:31.399Z,9.10
2018-12-08T22:43:00.467Z,7.13
2018-12-08T22:45:29.499Z,8.03
2018-12-08T22:47:58.544Z,7.37
2018-12-08T22:50:27.632Z,5.00
2018-12-08T22:52:56.658Z,7.50
2018-12-08T22:55:25.703Z,5.23
2018-12-08T22:57:54.871Z,5.30
2018-12-08T23:00:31.860Z,5.30
2018-12-08T23:03:00.960Z,5.23
2018-12-08T23:05:50.457Z,7.20
2018-12-08T23:08:19.529Z,4.93
2018-12-08T23:10:48.557Z,7.77
2018-12-08T23:13:17.593Z,5.77
2018-12-08T23:15:46.671Z,4.87
2018-12-08T23:18:15.802Z,6.27
2018-12-08T23:20:44.853Z,5.27
2018-12-08T23:23:13.923Z,4.40
2018-12-08T23:25:42.961Z,5.07
2018-12-08T23:28:11.981Z,4.60
2018-12-08T23:30:41.058Z,5.57
2018-12-08T23:33:10.079Z,4.33
2018-12-08T23:35:39.124Z,5.30
2018-12-08T23:38:08.295Z,5.47
2018-12-08T23:40:37.365Z,5.27
2018-12-08T23:43:06.398Z,5.20
2018-12-08T23:48:44.510Z,5.43
2018-12-08T23:51:13.577Z,7.90
2018-12-08T23:53:42.609Z,7.27
2018-12-08T23:56:11.703Z,5.30
2018-12-08T23:58:40.787Z,6.47
